Flight Track Log - Related Links

Times and Time Zones

All times are in EDT time to prevent confusion due to time zone crossing. See the N84NG flight status page for this flight to view local times or setup timezone preferences in your user account.

Time Position Orientation Groundspeed Altitude Reporting Facility
EDT Latitude Longitude Course Direction KTS MPH feet Rate Location/Type
Wed 11:05:07 AM 38.1864 -84.5553 260° West 234 269 4,200  Level Indianapolis Center
Wed 11:06:08 AM 38.1697 -84.6453 257° West 247 284 8,200 3,415 Climbing Indianapolis Center
Wed 11:07:10 AM 38.1564 -84.7494 261° West 286 329 11,200 2,419 Climbing Indianapolis Center
Wed 11:08:12 AM 38.1433 -84.8644 262° West 326 375 13,200 2,195 Climbing Indianapolis Center
Wed 11:09:13 AM 38.1286 -84.9925 262° West 362 417 15,700 2,390 Climbing Indianapolis Center
Wed 11:10:00 AM 38.1246 -85.2613 260° West  Level FlightAware Approximate
Wed 11:10:15 AM 38.1142 -85.1211 262° West 366 421 18,100  Level Indianapolis Center
Wed 11:11:17 AM 38.0950 -85.2653 260° West 372 428 20,900 2,468 Climbing Indianapolis Center
Wed 11:12:19 AM 38.0792 -85.3950 261° West 371 427 23,200 2,000 Climbing Indianapolis Center
Wed 11:13:20 AM 38.0631 -85.5275 261° West 378 435 25,000 1,415 Climbing Indianapolis Center
Wed 11:14:22 AM 38.0458 -85.6706 261° West 405 466 26,100 1,500 Climbing Indianapolis Center
Wed 11:15:24 AM 38.0269 -85.8128 260° West 409 471 28,100 1,951 Climbing Indianapolis Center
Wed 11:16:25 AM 38.0108 -85.9539 262° West 404 465 30,100 1,707 Climbing Indianapolis Center
Wed 11:17:27 AM 37.9922 -86.0944 261° West 403 464 31,600 1,452 Climbing Indianapolis Center
Wed 11:18:29 AM 37.9706 -86.2658 261° West 407 468 33,100 1,220 Climbing Indianapolis Center
Wed 11:19:30 AM 37.9508 -86.4106 260° West 415 478 34,100 976 Climbing Indianapolis Center
Wed 11:20:32 AM 37.9328 -86.5603 261° West 423 487 35,100 1,016 Climbing Indianapolis Center
Wed 11:21:34 AM 37.9114 -86.7100 260° West 427 491 36,200 1,016 Climbing Indianapolis Center
Wed 11:22:36 AM 37.8917 -86.8578 260° West 424 488 37,200 878 Climbing Indianapolis Center
Wed 11:23:37 AM 37.8719 -87.0033 260° West 418 481 38,000 390 Climbing Indianapolis Center
Wed 11:24:39 AM 37.8514 -87.1514 260° West 421 484 38,000  Level Indianapolis Center
Wed 11:25:41 AM 37.8294 -87.3042 260° West 433 498 38,000  Level Indianapolis Center
Wed 11:26:43 AM 37.8078 -87.4606 260° West 445 512 38,000  Level Indianapolis Center
Wed 11:27:44 AM 37.7853 -87.6183 260° West 451 519 38,000  Level Indianapolis Center
Wed 11:29:58 AM 37.7353 -87.9656 260° West 453 521 38,000  Level Kansas City Center
Wed 11:31:00 AM 37.7122 -88.1214 259° West 452 520 38,000  Level Kansas City Center
Wed 11:31:52 AM 37.6897 -88.2778 260° West 449 517 38,000  Level Indianapolis Center
Wed 11:32:53 AM 37.6661 -88.4339 259° West 451 519 38,000  Level Indianapolis Center
Wed 11:33:55 AM 37.6431 -88.5906 260° West 453 521 38,000 145 Level Indianapolis Center
Wed 11:34:57 AM 37.6194 -88.7461 259° West 451 519 38,300 629 Climbing Indianapolis Center
Wed 11:35:59 AM 37.5961 -88.8964 259° West 440 506 39,300 823 Climbing Indianapolis Center
Wed 11:37:01 AM 37.5742 -89.0425 259° West 426 490 40,000 339 Climbing Indianapolis Center
Wed 11:38:03 AM 37.5503 -89.1881 258° West 424 488 40,000  Level Indianapolis Center
Wed 11:39:04 AM 37.5222 -89.3675 259° West 433 498 40,000  Level Indianapolis Center
Wed 11:40:06 AM 37.4997 -89.5167 259° West 434 499 40,000  Level Indianapolis Center
Wed 11:41:08 AM 37.4750 -89.6656 258° West 433 498 40,000  Level Indianapolis Center
Wed 11:42:22 AM 37.4483 -89.8358 259° West 435 501 40,000  Level Kansas City Center
Wed 11:43:24 AM 37.4192 -90.0139 258° West 435 501 40,000  Level Kansas City Center
Wed 11:44:26 AM 37.3936 -90.1672 258° West 440 506 40,000  Level Kansas City Center
Wed 11:45:28 AM 37.3689 -90.3147 258° West 434 499 40,000  Level Kansas City Center
Wed 11:46:30 AM 37.3439 -90.4633 258° West 434 499 40,000  Level Kansas City Center
Wed 11:47:32 AM 37.3192 -90.6072 258° West 432 497 40,000  Level Kansas City Center
Wed 11:48:34 AM 37.2908 -90.7731 258° West 427 491 40,000  Level Kansas City Center
Wed 11:49:36 AM 37.2681 -90.9194 259° West 424 488 40,000  Level Kansas City Center
Wed 11:50:38 AM 37.2414 -91.0672 257° West 429 494 40,000  Level Kansas City Center
Wed 11:51:40 AM 37.2139 -91.2167 257° West 434 499 40,000  Level Kansas City Center
Wed 11:52:42 AM 37.1886 -91.3628 258° West 430 495 40,000  Level Kansas City Center
Wed 11:53:44 AM 37.1625 -91.5100 257° West 430 495 40,000  Level Kansas City Center
Wed 11:54:46 AM 37.1361 -91.6592 258° West 433 498 40,000  Level Kansas City Center
Wed 11:55:48 AM 37.1042 -91.8361 257° West 433 498 40,000  Level Kansas City Center
Wed 11:56:50 AM 37.0769 -91.9844 257° West 433 498 40,000  Level Kansas City Center
Wed 11:57:52 AM 37.0503 -92.1319 257° West 433 498 40,000  Level Kansas City Center
Wed 11:58:54 AM 37.0231 -92.2811 257° West 435 501 40,000  Level Kansas City Center
Wed 11:59:56 AM 36.9950 -92.4289 257° West 435 501 40,000  Level Kansas City Center
Wed 12:00:58 PM 36.9683 -92.5753 257° West 432 497 40,000  Level Kansas City Center
Wed 12:01:59 PM 36.9400 -92.7219 256° West 431 496 40,000  Level Kansas City Center
Wed 12:03:01 PM 36.9114 -92.8703 256° West 434 499 40,000  Level Kansas City Center
Wed 12:04:03 PM 36.8772 -93.0517 257° West 441 507 40,000  Level Kansas City Center
Wed 12:05:05 PM 36.8533 -93.1783 257° West 445 512 40,000  Level Kansas City Center
Wed 12:06:07 PM 36.8186 -93.3561 256° West 443 510 40,000  Level Kansas City Center
Wed 12:07:09 PM 36.7897 -93.5072 257° West 447 514 40,000  Level Kansas City Center
Wed 12:08:11 PM 36.7608 -93.6539 256° West 442 509 40,000  Level Kansas City Center
Wed 12:09:13 PM 36.7275 -93.8208 256° West 440 506 40,000  Level Kansas City Center
Wed 12:10:15 PM 36.6978 -93.9694 256° West 441 507 40,000 -48 Level Kansas City Center
Wed 12:11:17 PM 36.6672 -94.1161 255° West 440 506 39,900 -581 Descending Kansas City Center
Wed 12:12:19 PM 36.6397 -94.2553 256° West 423 487 38,800 -968 Descending Kansas City Center
Wed 12:13:21 PM 36.6122 -94.3878 256° West 403 464 37,900 -968 Descending Kansas City Center
Wed 12:14:23 PM 36.5853 -94.5208 256° West 398 458 36,800 -1,024 Descending Kansas City Center
Wed 12:15:24 PM 36.5578 -94.6542 256° West 397 457 35,800 -878 Descending Kansas City Center
Wed 12:16:26 PM 36.5233 -94.8183 255° West 405 466 35,000 -387 Descending Kansas City Center
Wed 12:17:28 PM 36.4944 -94.9594 256° West 417 480 35,000  Level Kansas City Center
Wed 12:18:30 PM 36.4639 -95.1031 255° West 426 490 35,000 -387 Level Kansas City Center
Wed 12:19:32 PM 36.4358 -95.2339 255° West 428 493 34,200 -484 Descending Kansas City Center
Wed 12:20:34 PM 36.3983 -95.4067 255° West 432 497 34,000 -97 Descending Kansas City Center
Wed 12:21:36 PM 36.3681 -95.5511 255° West 433 498 34,000  Level Kansas City Center
Wed 12:22:38 PM 36.3361 -95.6939 255° West 432 497 34,000  Level Kansas City Center
Wed 12:23:39 PM 36.3053 -95.8356 255° West 432 497 34,000  Level Kansas City Center
Wed 12:24:41 PM 36.2739 -95.9789 255° West 431 496 34,000 -629 Level Kansas City Center
Wed 12:25:43 PM 36.2425 -96.1206 255° West 429 494 32,700 -1,839 Descending Kansas City Center
Wed 12:26:45 PM 36.2064 -96.2844 255° West 419 482 30,200 -2,274 Descending Kansas City Center
Wed 12:27:47 PM 36.1731 -96.4164 253° West 410 472 28,000 -2,244 Descending Kansas City Center
Wed 12:28:48 PM 36.1117 -96.5331 237° Southwest 406 467 25,600 -2,390 Descending Kansas City Center
Wed 12:29:50 PM 36.0444 -96.6419 233° Southwest 401 461 23,100 -2,274 Descending Kansas City Center
Wed 12:30:52 PM 35.9767 -96.7469 231° Southwest 398 458 20,900 -2,274 Descending Kansas City Center
Wed 12:31:54 PM 35.9147 -96.8431 232° Southwest 378 435 18,400 -2,419 Descending Kansas City Center
Wed 12:32:56 PM 35.8650 -96.9681 244° Southwest 348 400 15,900 -2,371 Descending Kansas City Center
Wed 12:33:58 PM 35.8264 -97.0689 245° Southwest 334 384 13,500 -2,441 Descending Kansas City Center
Wed 12:34:54 PM 35.7897 -97.1681 246° West 310 357 11,100 -2,541 Descending Fort Worth Center
Wed 12:35:49 PM 35.7628 -97.2500 248° West 277 319 8,800 -2,379 Descending Fort Worth Center
Wed 12:36:50 PM 35.7336 -97.3292 246° West 247 284 6,500 -1,884 Descending Fort Worth Center
Wed 12:37:50 PM 35.7064 -97.4086 247° West 243 280 5,000 -1,304 Descending Fort Worth Center
Wed 12:38:45 PM 35.6836 -97.4725 246° West 237 273 4,000 -522 Descending Fort Worth Center
Wed 12:39:45 PM 35.6606 -97.5414 248° West 213 245 4,000 -313 Level Fort Worth Center
Wed 12:40:40 PM 35.6417 -97.5975 248° West 189 217 3,400 -724 Descending Fort Worth Center
Wed 12:41:41 PM 35.6186 -97.6458 240° Southwest 159 183 2,600 -744 Descending Fort Worth Center
Wed 12:42:41 PM 35.5792 -97.6483 183° South 140 161 1,900 -700 Descending Fort Worth Center

Login

Don't have an account? Register now (free) for customized features, flight alerts, and more!